Thunder radar more information blitzortung!


Radar de pluja more information rain snow radar


Visita la nostra xarxa de llocs de meteo:

Template documentation
and downloads

And another site



Wind From: 11-12-2017 11:00 Until: 14:59 warning for: Wind Level: Yellow info button

Pagina Historial Weather Underground text

Diari Resum Abril 12, 2016 Unitats:  Mètric    Imperial   Tant
« Previous Dia
SegĂźent Dia »
Diari Setmana Mensual Anual Personalitzada
  Maxima: Minima: Media:
Temperatura: 22.9 °C 10.2 °C 16.5 °C
Punt de rosada: 11.4 °C 3.8 °C 7.1 °C
Humitat: 79 % 33 % 55 %
Wind Speed: 23.3 km/h 0.0 km/h 7.3 km/h
RĂ fegues de vent: 23.3 km/h - -
Vent:- - South
Pression baro: 1014.8 hPa 1009.0 hPa -
Precipitacions: 0.0 mm    
Historical Graphs
 
 
Dades de taula per Abril 12, 2016
Temps Temperatura Punt de rosada Pression baro Vent Wind Speed RĂ fegues de vent Humitat Rainfall Rate (Hourly)
00:00 11.3 °C 6.8 °C 1013.8 hPa West 3.2 km/h 4.8 km/h 74 % 0.0 mm
00:02 12.2 °C 4.4 °C 1013.8 hPa WSW 5.6 km/h 5.6 km/h 59 % 0.0 mm
00:10 11.4 °C 7.3 °C 1013.8 hPa West 3.2 km/h 6.4 km/h 76 % 0.0 mm
00:20 11.3 °C 7.2 °C 1014.8 hPa WSW 3.2 km/h 6.4 km/h 76 % 0.0 mm
00:30 11.2 °C 7.1 °C 1014.8 hPa WSW 3.2 km/h 6.4 km/h 76 % 0.0 mm
00:40 11.1 °C 7.0 °C 1013.8 hPa WSW 1.6 km/h 3.2 km/h 76 % 0.0 mm
00:50 11.1 °C 7.2 °C 1013.8 hPa WSW 3.2 km/h 4.8 km/h 77 % 0.0 mm
01:00 11.2 °C 7.5 °C 1013.8 hPa SW 1.6 km/h 4.8 km/h 78 % 0.0 mm
01:10 11.1 °C 7.6 °C 1013.8 hPa Calm   3.2 km/h 79 % 0.0 mm
01:20 11.2 °C 7.5 °C 1013.8 hPa WSW 1.6 km/h 3.2 km/h 78 % 0.0 mm
01:30 11.0 °C 7.5 °C 1013.8 hPa WNW 1.6 km/h 3.2 km/h 79 % 0.0 mm
01:40 11.0 °C 7.3 °C 1013.8 hPa Calm   1.6 km/h 78 % 0.0 mm
01:50 11.0 °C 7.3 °C 1013.8 hPa Calm   1.6 km/h 78 % 0.0 mm
02:00 10.9 °C 7.2 °C 1013.8 hPa WNW 1.6 km/h 3.2 km/h 78 % 0.0 mm
02:10 10.8 °C 7.1 °C 1013.8 hPa WNW 1.6 km/h 3.2 km/h 78 % 0.0 mm
02:20 11.0 °C 7.5 °C 1013.8 hPa West 1.6 km/h 4.8 km/h 79 % 0.0 mm
02:30 11.0 °C 7.5 °C 1013.8 hPa West 1.6 km/h 1.6 km/h 79 % 0.0 mm
02:40 10.9 °C 7.4 °C 1013.8 hPa NNE 3.2 km/h 3.2 km/h 79 % 0.0 mm
02:50 10.4 °C 6.7 °C 1013.8 hPa East 4.8 km/h 4.8 km/h 78 % 0.0 mm
03:00 10.2 °C 6.6 °C 1013.8 hPa Calm   1.6 km/h 78 % 0.0 mm
03:10 10.2 °C 6.3 °C 1013.8 hPa Calm   3.2 km/h 77 % 0.0 mm
03:20 10.4 °C 6.6 °C 1013.8 hPa Calm   3.2 km/h 77 % 0.0 mm
03:30 10.6 °C 6.7 °C 1013.8 hPa Calm   3.2 km/h 77 % 0.0 mm
03:40 10.8 °C 7.1 °C 1013.8 hPa Calm   3.2 km/h 78 % 0.0 mm
04:00 11.4 °C 7.7 °C 1013.8 hPa SW 1.6 km/h 3.2 km/h 78 % 0.0 mm
04:10 11.9 °C 8.2 °C 1013.8 hPa SW 1.6 km/h 1.6 km/h 78 % 0.0 mm
04:20 12.5 °C 8.6 °C 1013.8 hPa SE 1.6 km/h 3.2 km/h 77 % 0.0 mm
04:30 12.6 °C 8.7 °C 1013.8 hPa Calm   3.2 km/h 77 % 0.0 mm
04:40 12.7 °C 8.6 °C 1013.8 hPa NNE 1.6 km/h 3.2 km/h 76 % 0.0 mm
04:50 13.3 °C 8.9 °C 1014.8 hPa NNE 1.6 km/h 3.2 km/h 75 % 0.0 mm
05:00 13.5 °C 8.6 °C 1014.8 hPa NNE 4.8 km/h 4.8 km/h 72 % 0.0 mm
05:10 13.7 °C 8.6 °C 1013.8 hPa NE 3.2 km/h 6.4 km/h 71 % 0.0 mm
05:20 14.2 °C 8.8 °C 1013.8 hPa ENE 4.8 km/h 4.8 km/h 70 % 0.0 mm
05:30 14.7 °C 9.3 °C 1013.8 hPa East 3.2 km/h 6.4 km/h 70 % 0.0 mm
05:40 15.2 °C 9.8 °C 1014.8 hPa East 3.2 km/h 4.8 km/h 70 % 0.0 mm
05:45 15.4 °C 9.9 °C 1014.8 hPa East 3.2 km/h 4.8 km/h 70 % 0.0 mm
10:45 15.4 °C 9.9 °C 1014.8 hPa ESE 5.6 km/h 5.6 km/h 70 % 0.0 mm
10:50 15.5 °C 9.8 °C 1012.8 hPa East 5.6 km/h 7.6 km/h 69 % 0.0 mm
10:55 15.4 °C 9.5 °C 1012.8 hPa ESE 9.3 km/h 9.3 km/h 68 % 0.0 mm
11:00 15.5 °C 9.6 °C 1012.8 hPa ENE 5.6 km/h 5.6 km/h 68 % 0.0 mm
11:05 15.7 °C 9.6 °C 1013.8 hPa ESE 9.3 km/h 9.3 km/h 67 % 0.0 mm
11:15 16.2 °C 9.8 °C 1013.8 hPa ESE 13.0 km/h 13.0 km/h 66 % 0.0 mm
11:20 16.5 °C 9.9 °C 1013.8 hPa ENE 5.6 km/h 5.6 km/h 65 % 0.0 mm
11:25 16.7 °C 9.8 °C 1013.8 hPa ENE 5.6 km/h 5.6 km/h 64 % 0.0 mm
11:30 16.9 °C 9.8 °C 1013.8 hPa ESE 9.3 km/h 9.3 km/h 63 % 0.0 mm
11:35 17.6 °C 10.2 °C 1013.8 hPa SSE 3.7 km/h 3.7 km/h 62 % 0.0 mm
11:40 18.0 °C 10.1 °C 1013.8 hPa East 14.8 km/h 14.8 km/h 60 % 0.0 mm
11:45 18.1 °C 10.2 °C 1013.8 hPa SE 5.6 km/h 5.6 km/h 60 % 0.0 mm
11:50 18.3 °C 10.4 °C 1013.8 hPa ENE 7.9 km/h 7.9 km/h 60 % 0.0 mm
11:55 18.0 °C 9.9 °C 1013.8 hPa ENE 9.3 km/h 9.3 km/h 59 % 0.0 mm
12:00 17.9 °C 9.8 °C 1013.8 hPa SSW 9.3 km/h 9.3 km/h 59 % 0.0 mm
12:05 18.0 °C 9.9 °C 1013.8 hPa East 11.1 km/h 11.1 km/h 59 % 0.0 mm
12:10 18.1 °C 9.9 °C 1013.8 hPa ESE 9.3 km/h 9.3 km/h 59 % 0.0 mm
12:15 18.0 °C 9.9 °C 1013.8 hPa NNE 5.6 km/h 5.6 km/h 59 % 0.0 mm
12:20 18.1 °C 9.7 °C 1013.8 hPa ESE 9.3 km/h 9.3 km/h 58 % 0.0 mm
12:25 18.2 °C 9.8 °C 1013.8 hPa ESE 9.3 km/h 9.3 km/h 58 % 0.0 mm
12:30 18.3 °C 9.9 °C 1013.8 hPa East 7.4 km/h 7.4 km/h 58 % 0.0 mm
12:35 18.3 °C 9.9 °C 1013.8 hPa ENE 7.4 km/h 7.4 km/h 58 % 0.0 mm
12:40 17.9 °C 10.0 °C 1013.8 hPa NNE 9.3 km/h 9.3 km/h 60 % 0.0 mm
12:45 18.1 °C 10.4 °C 1013.8 hPa East 9.3 km/h 9.3 km/h 61 % 0.0 mm
12:50 18.2 °C 10.3 °C 1013.8 hPa ENE 9.3 km/h 9.3 km/h 60 % 0.0 mm
12:55 18.3 °C 10.4 °C 1013.8 hPa ENE 9.3 km/h 9.3 km/h 60 % 0.0 mm
13:00 18.6 °C 10.4 °C 1013.8 hPa ESE 9.3 km/h 9.3 km/h 59 % 0.0 mm
13:10 18.6 °C 10.4 °C 1013.8 hPa East 4.2 km/h 4.2 km/h 59 % 0.0 mm
13:15 18.7 °C 10.3 °C 1013.8 hPa NE 13.0 km/h 13.0 km/h 58 % 0.0 mm
13:20 18.7 °C 10.0 °C 1013.8 hPa East 11.1 km/h 11.1 km/h 57 % 0.0 mm
13:25 18.8 °C 10.1 °C 1013.8 hPa NNE 6.4 km/h 6.4 km/h 57 % 0.0 mm
13:30 19.0 °C 10.3 °C 1013.8 hPa ESE 13.0 km/h 13.0 km/h 57 % 0.0 mm
13:36 18.9 °C 10.7 °C 1012.8 hPa East 14.8 km/h 14.8 km/h 59 % 0.0 mm
13:41 18.8 °C 10.9 °C 1012.8 hPa ENE 13.0 km/h 13.0 km/h 60 % 0.0 mm
13:46 19.0 °C 10.8 °C 1012.8 hPa East 13.0 km/h 13.0 km/h 59 % 0.0 mm
13:51 19.0 °C 10.8 °C 1012.8 hPa East 13.0 km/h 13.0 km/h 59 % 0.0 mm
13:56 19.0 °C 10.6 °C 1012.8 hPa SSW 11.1 km/h 11.1 km/h 58 % 0.0 mm
14:01 19.0 °C 10.6 °C 1012.8 hPa ENE 9.3 km/h 9.3 km/h 58 % 0.0 mm
14:06 19.3 °C 10.8 °C 1011.7 hPa South 9.3 km/h 9.3 km/h 58 % 0.0 mm
14:11 19.2 °C 10.7 °C 1011.7 hPa ENE 7.4 km/h 7.4 km/h 58 % 0.0 mm
14:16 19.8 °C 11.3 °C 1011.7 hPa SSE 9.3 km/h 9.3 km/h 58 % 0.0 mm
14:21 19.9 °C 11.4 °C 1011.7 hPa ENE 7.4 km/h 7.4 km/h 58 % 0.0 mm
14:26 20.3 °C 11.2 °C 1011.7 hPa ESE 7.4 km/h 7.4 km/h 56 % 0.0 mm
14:31 19.9 °C 10.8 °C 1011.7 hPa NNE 9.3 km/h 9.3 km/h 56 % 0.0 mm
14:36 20.0 °C 10.9 °C 1011.7 hPa ESE 10.0 km/h 10.0 km/h 56 % 0.0 mm
14:41 20.4 °C 11.3 °C 1011.7 hPa East 11.1 km/h 11.1 km/h 56 % 0.0 mm
14:46 20.7 °C 11.3 °C 1011.7 hPa WSW 3.7 km/h 3.7 km/h 55 % 0.0 mm
14:51 20.8 °C 11.2 °C 1011.7 hPa NE 5.6 km/h 5.6 km/h 54 % 0.0 mm
14:56 21.6 °C 11.0 °C 1011.7 hPa SW 9.3 km/h 9.3 km/h 51 % 0.0 mm
15:01 21.9 °C 10.4 °C 1011.7 hPa SSW 5.6 km/h 5.8 km/h 48 % 0.0 mm
15:06 21.7 °C 10.2 °C 1011.7 hPa WSW 5.6 km/h 5.6 km/h 48 % 0.0 mm
15:11 22.3 °C 10.4 °C 1011.7 hPa SW 6.1 km/h 6.1 km/h 47 % 0.0 mm
15:16 22.6 °C 10.4 °C 1011.7 hPa SSE 13.0 km/h 13.0 km/h 46 % 0.0 mm
15:21 22.9 °C 10.3 °C 1011.7 hPa SW 15.6 km/h 15.6 km/h 45 % 0.0 mm
15:31 22.6 °C 8.3 °C 1011.7 hPa SW 13.0 km/h 13.0 km/h 40 % 0.0 mm
15:36 22.5 °C 8.6 °C 1011.7 hPa WSW 11.1 km/h 11.1 km/h 41 % 0.0 mm
15:41 22.5 °C 8.6 °C 1011.7 hPa WSW 14.8 km/h 14.8 km/h 41 % 0.0 mm
15:46 22.5 °C 8.6 °C 1011.7 hPa SSW 5.6 km/h 7.2 km/h 41 % 0.0 mm
15:51 22.5 °C 8.6 °C 1011.7 hPa West 20.4 km/h 20.4 km/h 41 % 0.0 mm
15:56 22.5 °C 8.6 °C 1011.7 hPa SW 9.3 km/h 9.3 km/h 41 % 0.0 mm
16:01 22.5 °C 8.6 °C 1010.7 hPa SW 13.7 km/h 13.7 km/h 41 % 0.0 mm
16:06 22.5 °C 8.6 °C 1010.7 hPa South 7.4 km/h 7.4 km/h 41 % 0.0 mm
16:11 22.5 °C 8.6 °C 1010.7 hPa West 9.3 km/h 9.3 km/h 41 % 0.0 mm
16:16 22.5 °C 8.6 °C 1010.7 hPa SW 16.7 km/h 16.7 km/h 41 % 0.0 mm
16:21 22.5 °C 8.6 °C 1010.7 hPa SW 14.8 km/h 14.8 km/h 41 % 0.0 mm
16:26 22.5 °C 8.6 °C 1010.7 hPa South 11.4 km/h 11.4 km/h 41 % 0.0 mm
16:31 22.5 °C 8.6 °C 1010.0 hPa West 16.7 km/h 16.7 km/h 41 % 0.0 mm
16:41 22.5 °C 8.6 °C 1010.0 hPa SSW 9.3 km/h 9.3 km/h 41 % 0.0 mm
16:46 22.5 °C 8.6 °C 1010.7 hPa SSW 7.4 km/h 7.4 km/h 41 % 0.0 mm
16:51 22.5 °C 8.6 °C 1010.7 hPa South 18.5 km/h 18.5 km/h 41 % 0.0 mm
16:56 22.5 °C 7.1 °C 1010.7 hPa SW 14.8 km/h 14.8 km/h 37 % 0.0 mm
17:01 22.5 °C 6.3 °C 1010.0 hPa SSW 13.0 km/h 13.0 km/h 35 % 0.0 mm
17:06 22.5 °C 6.3 °C 1010.0 hPa SSW 13.0 km/h 13.0 km/h 35 % 0.0 mm
17:11 22.5 °C 6.3 °C 1010.0 hPa SW 13.0 km/h 13.0 km/h 35 % 0.0 mm
17:16 22.5 °C 6.3 °C 1010.0 hPa SSW 9.3 km/h 9.3 km/h 35 % 0.0 mm
17:21 22.5 °C 6.3 °C 1010.0 hPa WSW 16.7 km/h 16.7 km/h 35 % 0.0 mm
17:26 22.5 °C 6.3 °C 1010.0 hPa SW 13.0 km/h 13.0 km/h 35 % 0.0 mm
17:31 22.5 °C 6.3 °C 1010.0 hPa WSW 18.5 km/h 18.5 km/h 35 % 0.0 mm
17:36 22.5 °C 6.3 °C 1010.0 hPa SW 16.7 km/h 16.7 km/h 35 % 0.0 mm
17:41 22.5 °C 6.3 °C 1010.0 hPa South 12.6 km/h 12.6 km/h 35 % 0.0 mm
17:46 21.1 °C 4.6 °C 1010.0 hPa SSW 14.8 km/h 14.8 km/h 34 % 0.0 mm
17:51 20.8 °C 3.9 °C 1010.0 hPa SSW 23.3 km/h 23.3 km/h 33 % 0.0 mm
17:56 20.7 °C 4.3 °C 1010.0 hPa SSW 13.0 km/h 13.0 km/h 34 % 0.0 mm
18:01 20.7 °C 4.3 °C 1010.0 hPa SSE 14.8 km/h 14.8 km/h 34 % 0.0 mm
18:06 20.6 °C 3.8 °C 1010.0 hPa West 14.8 km/h 14.8 km/h 33 % 0.0 mm
18:11 20.6 °C 3.8 °C 1010.0 hPa WSW 9.3 km/h 9.3 km/h 33 % 0.0 mm
18:16 20.4 °C 4.0 °C 1010.0 hPa SW 22.2 km/h 22.2 km/h 34 % 0.0 mm
18:21 20.4 °C 4.0 °C 1010.0 hPa SSW 16.7 km/h 16.7 km/h 34 % 0.0 mm
18:26 20.4 °C 4.0 °C 1010.0 hPa WSW 22.2 km/h 22.2 km/h 34 % 0.0 mm
18:31 20.4 °C 4.0 °C 1010.0 hPa SW 16.7 km/h 16.7 km/h 34 % 0.0 mm
18:36 20.4 °C 4.0 °C 1010.0 hPa SW 18.5 km/h 18.5 km/h 34 % 0.0 mm
18:41 20.4 °C 4.0 °C 1010.0 hPa SW 16.7 km/h 16.7 km/h 34 % 0.0 mm
18:46 20.4 °C 4.0 °C 1010.0 hPa SSW 11.9 km/h 15.8 km/h 34 % 0.0 mm
18:51 19.4 °C 4.7 °C 1010.0 hPa SW 8.7 km/h 10.3 km/h 38 % 0.0 mm
18:56 19.3 °C 5.0 °C 1010.0 hPa West 9.5 km/h 9.5 km/h 39 % 0.0 mm
19:01 19.3 °C 5.0 °C 1010.0 hPa SW 14.8 km/h 14.8 km/h 39 % 0.0 mm
19:06 19.3 °C 5.0 °C 1010.0 hPa SW 15.8 km/h 15.8 km/h 39 % 0.0 mm
19:11 19.3 °C 5.0 °C 1010.0 hPa SW 7.4 km/h 10.0 km/h 39 % 0.0 mm
19:15 13.4 °C 5.6 °C 1011.7 hPa WSW 3.2 km/h 4.8 km/h 59 % 0.0 mm
19:16 18.5 °C 5.0 °C 1010.0 hPa SSW 12.6 km/h 12.6 km/h 41 % 0.0 mm
19:21 18.5 °C 5.0 °C 1010.0 hPa SW 11.1 km/h 11.1 km/h 41 % 0.0 mm
19:25 13.2 °C 5.3 °C 1010.7 hPa West 1.6 km/h 3.2 km/h 59 % 0.0 mm
19:26 18.5 °C 5.0 °C 1010.0 hPa SSW 5.8 km/h 5.8 km/h 41 % 0.0 mm
19:31 17.9 °C 5.1 °C 1010.0 hPa SSW 13.0 km/h 13.0 km/h 43 % 0.0 mm
19:35 13.0 °C 5.2 °C 1011.7 hPa NNW 1.6 km/h 4.8 km/h 59 % 0.0 mm
19:36 17.8 °C 5.1 °C 1010.0 hPa SW 9.3 km/h 9.3 km/h 43 % 0.0 mm
19:41 17.8 °C 5.1 °C 1010.0 hPa WSW 9.7 km/h 9.7 km/h 43 % 0.0 mm
19:45 12.6 °C 4.8 °C 1011.7 hPa NNE 1.6 km/h 3.2 km/h 59 % 0.0 mm
19:46 17.8 °C 5.1 °C 1009.0 hPa WSW 9.7 km/h 9.7 km/h 43 % 0.0 mm
19:51 17.8 °C 5.1 °C 1009.0 hPa WNW 9.3 km/h 9.3 km/h 43 % 0.0 mm
19:55 12.3 °C 4.8 °C 1011.7 hPa Calm   3.2 km/h 60 % 0.0 mm
19:56 17.8 °C 5.1 °C 1009.0 hPa WSW 13.0 km/h 13.0 km/h 43 % 0.0 mm
20:05 12.3 °C 4.8 °C 1010.7 hPa Calm   4.8 km/h 60 % 0.0 mm
20:06 17.8 °C 5.1 °C 1010.0 hPa SW 17.2 km/h 17.2 km/h 43 % 0.0 mm
20:11 17.8 °C 5.1 °C 1010.0 hPa WSW 7.4 km/h 7.4 km/h 43 % 0.0 mm
20:15 12.3 °C 4.8 °C 1010.7 hPa Calm   1.6 km/h 60 % 0.0 mm
20:16 17.8 °C 5.1 °C 1010.0 hPa SW 9.3 km/h 9.3 km/h 43 % 0.0 mm
20:21 17.8 °C 5.1 °C 1010.0 hPa SSW 9.5 km/h 9.5 km/h 43 % 0.0 mm
20:25 12.2 °C 4.7 °C 1011.7 hPa WSW 3.2 km/h 3.2 km/h 60 % 0.0 mm
20:26 17.8 °C 5.1 °C 1010.0 hPa SW 3.7 km/h 4.7 km/h 43 % 0.0 mm
20:31 17.8 °C 5.1 °C 1010.0 hPa SW 5.6 km/h 5.6 km/h 43 % 0.0 mm
20:35 11.8 °C 4.5 °C 1011.7 hPa WSW 3.2 km/h 4.8 km/h 61 % 0.0 mm
20:36 17.8 °C 5.1 °C 1010.0 hPa SSW 5.6 km/h 5.8 km/h 43 % 0.0 mm
20:41 17.8 °C 5.1 °C 1010.0 hPa SW 11.1 km/h 11.1 km/h 43 % 0.0 mm
20:45 11.8 °C 4.5 °C 1011.7 hPa SW 1.6 km/h 4.8 km/h 61 % 0.0 mm
20:46 17.8 °C 5.1 °C 1010.0 hPa SSW 5.6 km/h 5.6 km/h 43 % 0.0 mm
20:51 17.8 °C 5.1 °C 1010.0 hPa SSW 7.4 km/h 7.4 km/h 43 % 0.0 mm
20:55 11.8 °C 4.5 °C 1011.7 hPa SW 3.2 km/h 4.8 km/h 61 % 0.0 mm
20:56 17.8 °C 5.1 °C 1010.0 hPa West 9.3 km/h 9.3 km/h 43 % 0.0 mm
21:01 17.8 °C 5.1 °C 1010.7 hPa SSW 11.1 km/h 11.1 km/h 43 % 0.0 mm
21:05 11.8 °C 4.5 °C 1011.7 hPa SW 3.2 km/h 3.2 km/h 61 % 0.0 mm
21:06 17.8 °C 5.1 °C 1010.7 hPa West 7.4 km/h 7.4 km/h 43 % 0.0 mm
21:11 17.8 °C 5.1 °C 1010.7 hPa SW 5.6 km/h 5.6 km/h 43 % 0.0 mm
21:16 14.9 °C 5.9 °C 1010.7 hPa WSW 9.3 km/h 9.3 km/h 55 % 0.0 mm
21:21 14.9 °C 5.9 °C 1010.7 hPa SW 5.6 km/h 5.6 km/h 55 % 0.0 mm
21:25 12.1 °C 4.8 °C 1011.7 hPa Calm   1.6 km/h 61 % 0.0 mm
21:26 14.9 °C 5.9 °C 1010.7 hPa WSW 5.6 km/h 5.6 km/h 55 % 0.0 mm
21:31 14.9 °C 5.9 °C 1010.7 hPa WSW 5.6 km/h 5.6 km/h 55 % 0.0 mm
21:35 12.1 °C 4.8 °C 1011.7 hPa Calm   1.6 km/h 61 % 0.0 mm
21:36 14.6 °C 5.9 °C 1010.7 hPa SW 9.3 km/h 9.3 km/h 56 % 0.0 mm
21:41 14.6 °C 5.9 °C 1010.7 hPa SW 9.3 km/h 9.3 km/h 56 % 0.0 mm
21:45 12.1 °C 4.8 °C 1011.7 hPa WSW 1.6 km/h 1.6 km/h 61 % 0.0 mm
21:46 14.4 °C 5.7 °C 1011.7 hPa WSW 5.6 km/h 5.6 km/h 56 % 0.0 mm
21:51 14.4 °C 5.7 °C 1011.7 hPa SW 5.6 km/h 5.6 km/h 56 % 0.0 mm
21:55 12.1 °C 4.8 °C 1011.7 hPa WSW 3.2 km/h 4.8 km/h 61 % 0.0 mm
21:56 14.3 °C 5.6 °C 1011.7 hPa SW 5.6 km/h 5.6 km/h 56 % 0.0 mm
22:01 14.3 °C 5.6 °C 1011.7 hPa WSW 3.7 km/h 3.7 km/h 56 % 0.0 mm
22:05 12.1 °C 4.8 °C 1010.7 hPa SW 3.2 km/h 4.8 km/h 61 % 0.0 mm
22:06 14.2 °C 5.6 °C 1011.7 hPa SW 2.3 km/h 2.3 km/h 56 % 0.0 mm
22:11 14.1 °C 5.4 °C 1011.7 hPa West 3.9 km/h 3.9 km/h 56 % 0.0 mm
22:15 12.1 °C 4.8 °C 1010.7 hPa SW 1.6 km/h 3.2 km/h 61 % 0.0 mm
22:16 14.1 °C 5.4 °C 1011.7 hPa WSW 4.7 km/h 4.7 km/h 56 % 0.0 mm
22:21 14.0 °C 5.3 °C 1011.7 hPa SW 3.7 km/h 3.7 km/h 56 % 0.0 mm
22:25 12.1 °C 4.8 °C 1010.7 hPa SW 1.6 km/h 3.2 km/h 61 % 0.0 mm
22:31 14.0 °C 5.3 °C 1011.7 hPa SW 3.7 km/h 3.7 km/h 56 % 0.0 mm
22:35 12.1 °C 4.8 °C 1010.7 hPa Calm     61 % 0.0 mm
22:36 14.0 °C 5.3 °C 1011.7 hPa SW 1.9 km/h 1.9 km/h 56 % 0.0 mm
22:41 13.8 °C 5.4 °C 1011.7 hPa SW 1.9 km/h 1.9 km/h 57 % 0.0 mm
22:45 12.1 °C 4.8 °C 1010.7 hPa Calm     61 % 0.0 mm
22:46 13.8 °C 5.4 °C 1011.7 hPa West 4.7 km/h 4.7 km/h 57 % 0.0 mm
22:51 13.8 °C 5.4 °C 1011.7 hPa WNW 4.2 km/h 4.7 km/h 57 % 0.0 mm
22:55 12.1 °C 4.8 °C 1010.7 hPa South 1.6 km/h 3.2 km/h 61 % 0.0 mm
22:56 13.8 °C 5.7 °C 1011.7 hPa West 3.7 km/h 3.7 km/h 58 % 0.0 mm
23:01 13.7 °C 5.6 °C 1011.7 hPa West 5.6 km/h 5.6 km/h 58 % 0.0 mm
23:05 11.4 °C 4.4 °C 1010.7 hPa NW 1.6 km/h 3.2 km/h 62 % 0.0 mm
23:06 13.7 °C 5.8 °C 1011.7 hPa WSW 7.4 km/h 7.4 km/h 59 % 0.0 mm
23:11 13.7 °C 5.8 °C 1011.7 hPa WSW 5.6 km/h 5.6 km/h 59 % 0.0 mm
23:16 13.6 °C 5.7 °C 1011.7 hPa SW 3.7 km/h 3.9 km/h 59 % 0.0 mm
23:25 11.2 °C 4.2 °C 1010.0 hPa WSW 3.2 km/h 4.8 km/h 62 % 0.0 mm
23:26 13.6 °C 5.7 °C 1011.7 hPa SW 3.9 km/h 3.9 km/h 59 % 0.0 mm
23:31 13.6 °C 5.7 °C 1011.7 hPa SW 3.9 km/h 3.9 km/h 59 % 0.0 mm
23:35 11.2 °C 4.2 °C 1010.0 hPa WSW 1.6 km/h 3.2 km/h 62 % 0.0 mm
23:36 13.6 °C 5.7 °C 1011.7 hPa SW 3.9 km/h 3.9 km/h 59 % 0.0 mm
23:41 13.6 °C 5.7 °C 1011.7 hPa SW 3.9 km/h 3.9 km/h 59 % 0.0 mm
23:45 11.3 °C 4.5 °C 1010.0 hPa Calm   3.2 km/h 63 % 0.0 mm
23:46 13.6 °C 5.7 °C 1011.7 hPa SW 3.9 km/h 3.9 km/h 59 % 0.0 mm
23:51 13.3 °C 5.4 °C 1011.7 hPa SW 3.9 km/h 3.9 km/h 59 % 0.0 mm
23:55 11.2 °C 4.6 °C 1010.0 hPa SSW 1.6 km/h 3.2 km/h 64 % 0.0 mm
23:56 13.3 °C 5.4 °C 1011.7 hPa SW 3.9 km/h 3.9 km/h 59 % 0.0 mm
Meteo Sesrovires
Elogis d' Weather Underground - 3.75 mb

Guio original per  Jim McMurry - jmcmurry@mwt.net Adaptat per a la plantilla per  Wim van der Kuil - Leuven-Template.eu

Trobareu la nostra informacio del temps tambe a:

Weather Underground

AWEKAS